Terminal Aerodrome Forecast
Issued by NWS

Home | Current Version | Previous Version | Graphics & Text | Print | Product List | Glossary On
Versions: 1 2 3 4 5 6 7 8 9 10 11 12 13 14 15
083
FTUS43 KIWX 270151 AAB
TAFSBN
TAF AMD
KSBN 270151Z 2702/2724 06006KT 6SM BR VCSH OVC030
     FM271000 04004KT P6SM BKN015
     FM271500 05006KT P6SM BKN035
     FM272100 11004KT P6SM SCT080=

USA.gov is the U.S. government's official web portal to all federal, state and local government web resources and services.